sensor_id;sensor_type;location;lat;lon;timestamp;temperature;humidity
13072;DHT22;6602;58.934;11.166;2022-11-15T00:03:52;8.00;99.90
13072;DHT22;6602;58.934;11.166;2022-11-15T00:09:15;8.00;99.90
13072;DHT22;6602;58.934;11.166;2022-11-15T00:14:38;8.00;99.90
13072;DHT22;6602;58.934;11.166;2022-11-15T00:20:00;8.00;99.90
13072;DHT22;6602;58.934;11.166;2022-11-15T00:25:22;8.00;99.90
13072;DHT22;6602;58.934;11.166;2022-11-15T00:30:43;7.90;99.90
13072;DHT22;6602;58.934;11.166;2022-11-15T00:36:10;7.90;99.90
13072;DHT22;6602;58.934;11.166;2022-11-15T00:41:53;7.90;99.90
13072;DHT22;6602;58.934;11.166;2022-11-15T00:47:14;7.90;99.90
13072;DHT22;6602;58.934;11.166;2022-11-15T00:52:37;7.80;99.90
13072;DHT22;6602;58.934;11.166;2022-11-15T00:58:00;7.80;99.90
13072;DHT22;6602;58.934;11.166;2022-11-15T01:03:27;7.80;99.90
13072;DHT22;6602;58.934;11.166;2022-11-15T01:08:49;7.80;99.90
13072;DHT22;6602;58.934;11.166;2022-11-15T01:14:10;7.90;99.90
13072;DHT22;6602;58.934;11.166;2022-11-15T01:19:35;7.90;99.90
13072;DHT22;6602;58.934;11.166;2022-11-15T01:24:58;7.90;99.90
13072;DHT22;6602;58.934;11.166;2022-11-15T01:30:27;7.90;99.90
13072;DHT22;6602;58.934;11.166;2022-11-15T01:35:51;7.80;99.90
13072;DHT22;6602;58.934;11.166;2022-11-15T01:41:26;7.80;99.90
13072;DHT22;6602;58.934;11.166;2022-11-15T01:46:49;7.80;99.90
13072;DHT22;6602;58.934;11.166;2022-11-15T01:52:15;7.80;99.90
13072;DHT22;6602;58.934;11.166;2022-11-15T01:57:40;7.80;99.90
13072;DHT22;6602;58.934;11.166;2022-11-15T02:03:07;7.80;99.90
13072;DHT22;6602;58.934;11.166;2022-11-15T02:08:29;7.80;99.90
13072;DHT22;6602;58.934;11.166;2022-11-15T02:13:50;7.80;99.90
13072;DHT22;6602;58.934;11.166;2022-11-15T02:19:47;7.80;99.90
13072;DHT22;6602;58.934;11.166;2022-11-15T02:37:03;7.90;99.90
13072;DHT22;6602;58.934;11.166;2022-11-15T02:42:43;7.90;99.90
13072;DHT22;6602;58.934;11.166;2022-11-15T02:48:26;8.00;99.90
13072;DHT22;6602;58.934;11.166;2022-11-15T02:53:50;7.90;99.90
13072;DHT22;6602;58.934;11.166;2022-11-15T03:11:17;8.00;99.90
13072;DHT22;6602;58.934;11.166;2022-11-15T03:17:23;8.10;99.90
13072;DHT22;6602;58.934;11.166;2022-11-15T03:22:49;8.10;99.90
13072;DHT22;6602;58.934;11.166;2022-11-15T03:28:16;8.00;99.90
13072;DHT22;6602;58.934;11.166;2022-11-15T03:33:41;8.00;99.90
13072;DHT22;6602;58.934;11.166;2022-11-15T03:39:07;8.00;99.90
13072;DHT22;6602;58.934;11.166;2022-11-15T03:50:08;8.00;99.90
13072;DHT22;6602;58.934;11.166;2022-11-15T03:55:33;8.00;99.90
13072;DHT22;6602;58.934;11.166;2022-11-15T04:00:55;8.00;99.90
13072;DHT22;6602;58.934;11.166;2022-11-15T04:06:17;8.00;99.90
13072;DHT22;6602;58.934;11.166;2022-11-15T04:12:01;8.00;99.90
13072;DHT22;6602;58.934;11.166;2022-11-15T04:17:26;7.90;99.90
13072;DHT22;6602;58.934;11.166;2022-11-15T04:22:57;7.90;99.90
13072;DHT22;6602;58.934;11.166;2022-11-15T04:28:38;7.90;99.90
13072;DHT22;6602;58.934;11.166;2022-11-15T04:34:25;8.00;99.90
13072;DHT22;6602;58.934;11.166;2022-11-15T04:39:46;8.00;99.90
13072;DHT22;6602;58.934;11.166;2022-11-15T04:45:07;8.00;99.90
13072;DHT22;6602;58.934;11.166;2022-11-15T04:50:29;8.00;99.90
13072;DHT22;6602;58.934;11.166;2022-11-15T04:55:53;8.00;99.90
13072;DHT22;6602;58.934;11.166;2022-11-15T05:01:21;7.90;99.90
13072;DHT22;6602;58.934;11.166;2022-11-15T05:06:42;7.90;99.90
13072;DHT22;6602;58.934;11.166;2022-11-15T05:12:04;7.90;99.90
13072;DHT22;6602;58.934;11.166;2022-11-15T05:17:25;7.90;99.90
13072;DHT22;6602;58.934;11.166;2022-11-15T05:22:47;7.90;99.90
13072;DHT22;6602;58.934;11.166;2022-11-15T05:28:10;7.90;99.90
13072;DHT22;6602;58.934;11.166;2022-11-15T05:33:33;7.90;99.90
13072;DHT22;6602;58.934;11.166;2022-11-15T05:38:56;7.80;99.90
13072;DHT22;6602;58.934;11.166;2022-11-15T05:44:23;7.90;99.90
13072;DHT22;6602;58.934;11.166;2022-11-15T05:49:48;7.90;99.90
13072;DHT22;6602;58.934;11.166;2022-11-15T05:55:29;7.90;99.90
13072;DHT22;6602;58.934;11.166;2022-11-15T06:01:00;7.90;99.90
13072;DHT22;6602;58.934;11.166;2022-11-15T06:06:24;7.90;99.90
13072;DHT22;6602;58.934;11.166;2022-11-15T06:11:45;7.90;99.90
13072;DHT22;6602;58.934;11.166;2022-11-15T06:17:08;7.90;99.90
13072;DHT22;6602;58.934;11.166;2022-11-15T06:22:37;7.80;99.90
13072;DHT22;6602;58.934;11.166;2022-11-15T06:27:59;7.80;99.90
13072;DHT22;6602;58.934;11.166;2022-11-15T06:33:24;7.80;99.90
13072;DHT22;6602;58.934;11.166;2022-11-15T06:38:46;7.80;99.90
13072;DHT22;6602;58.934;11.166;2022-11-15T06:44:08;7.80;99.90
13072;DHT22;6602;58.934;11.166;2022-11-15T06:49:31;7.80;99.90
13072;DHT22;6602;58.934;11.166;2022-11-15T06:54:53;7.80;99.90
13072;DHT22;6602;58.934;11.166;2022-11-15T07:00:15;7.80;99.90
13072;DHT22;6602;58.934;11.166;2022-11-15T07:06:01;7.80;99.90
13072;DHT22;6602;58.934;11.166;2022-11-15T07:11:22;7.90;99.90
13072;DHT22;6602;58.934;11.166;2022-11-15T07:16:43;8.00;99.90
13072;DHT22;6602;58.934;11.166;2022-11-15T07:22:05;8.00;99.90
13072;DHT22;6602;58.934;11.166;2022-11-15T07:27:28;8.20;99.90
13072;DHT22;6602;58.934;11.166;2022-11-15T07:33:00;8.20;99.90
13072;DHT22;6602;58.934;11.166;2022-11-15T07:38:21;8.30;99.90
13072;DHT22;6602;58.934;11.166;2022-11-15T07:43:42;8.30;99.90
13072;DHT22;6602;58.934;11.166;2022-11-15T07:49:06;8.40;99.90
13072;DHT22;6602;58.934;11.166;2022-11-15T07:54:29;8.30;99.90
13072;DHT22;6602;58.934;11.166;2022-11-15T07:59:50;8.20;99.90
13072;DHT22;6602;58.934;11.166;2022-11-15T08:05:13;8.10;99.90
13072;DHT22;6602;58.934;11.166;2022-11-15T08:10:36;8.00;99.90
13072;DHT22;6602;58.934;11.166;2022-11-15T08:15:59;8.00;99.90
13072;DHT22;6602;58.934;11.166;2022-11-15T08:21:21;8.00;99.90
13072;DHT22;6602;58.934;11.166;2022-11-15T08:26:42;8.10;99.90
13072;DHT22;6602;58.934;11.166;2022-11-15T08:32:05;8.10;99.90
13072;DHT22;6602;58.934;11.166;2022-11-15T08:37:26;8.10;99.90
13072;DHT22;6602;58.934;11.166;2022-11-15T08:42:47;8.10;99.90
13072;DHT22;6602;58.934;11.166;2022-11-15T08:48:12;8.20;99.90
13072;DHT22;6602;58.934;11.166;2022-11-15T08:53:34;8.20;99.90
13072;DHT22;6602;58.934;11.166;2022-11-15T08:58:55;8.30;99.90
13072;DHT22;6602;58.934;11.166;2022-11-15T09:04:18;8.30;99.90
13072;DHT22;6602;58.934;11.166;2022-11-15T09:09:39;8.30;99.90
13072;DHT22;6602;58.934;11.166;2022-11-15T09:15:00;8.40;99.90
13072;DHT22;6602;58.934;11.166;2022-11-15T09:20:21;8.30;99.90
13072;DHT22;6602;58.934;11.166;2022-11-15T09:25:42;8.20;99.90
13072;DHT22;6602;58.934;11.166;2022-11-15T09:31:05;8.10;99.90
13072;DHT22;6602;58.934;11.166;2022-11-15T09:36:27;8.10;99.90
13072;DHT22;6602;58.934;11.166;2022-11-15T09:53:39;7.90;99.90
13072;DHT22;6602;58.934;11.166;2022-11-15T10:04:29;7.80;99.90
13072;DHT22;6602;58.934;11.166;2022-11-15T10:10:04;7.80;99.90
13072;DHT22;6602;58.934;11.166;2022-11-15T10:15:28;7.70;99.90
13072;DHT22;6602;58.934;11.166;2022-11-15T10:21:15;7.60;99.90
13072;DHT22;6602;58.934;11.166;2022-11-15T10:26:36;7.40;99.90
13072;DHT22;6602;58.934;11.166;2022-11-15T10:31:59;7.30;99.90
13072;DHT22;6602;58.934;11.166;2022-11-15T10:37:31;7.40;99.90
13072;DHT22;6602;58.934;11.166;2022-11-15T10:48:31;7.30;99.90
13072;DHT22;6602;58.934;11.166;2022-11-15T10:53:58;7.40;99.90
13072;DHT22;6602;58.934;11.166;2022-11-15T10:59:30;7.40;99.90
13072;DHT22;6602;58.934;11.166;2022-11-15T11:04:52;7.50;99.90
13072;DHT22;6602;58.934;11.166;2022-11-15T11:10:21;7.60;99.90
13072;DHT22;6602;58.934;11.166;2022-11-15T11:15:46;7.60;99.90
13072;DHT22;6602;58.934;11.166;2022-11-15T11:21:17;7.70;99.90
13072;DHT22;6602;58.934;11.166;2022-11-15T11:27:03;7.60;99.90
13072;DHT22;6602;58.934;11.166;2022-11-15T11:44:23;7.50;99.90
13072;DHT22;6602;58.934;11.166;2022-11-15T11:50:21;7.50;99.90
13072;DHT22;6602;58.934;11.166;2022-11-15T11:55:46;7.40;99.90
13072;DHT22;6602;58.934;11.166;2022-11-15T12:01:22;7.30;99.90
13072;DHT22;6602;58.934;11.166;2022-11-15T12:06:58;7.20;99.90
13072;DHT22;6602;58.934;11.166;2022-11-15T12:18:15;7.20;99.90
13072;DHT22;6602;58.934;11.166;2022-11-15T12:23:46;7.30;99.90
13072;DHT22;6602;58.934;11.166;2022-11-15T12:29:18;7.30;99.90
13072;DHT22;6602;58.934;11.166;2022-11-15T12:34:44;7.30;99.90
13072;DHT22;6602;58.934;11.166;2022-11-15T12:40:36;7.30;99.90
13072;DHT22;6602;58.934;11.166;2022-11-15T12:46:02;7.40;99.90
13072;DHT22;6602;58.934;11.166;2022-11-15T12:57:22;7.30;99.90
13072;DHT22;6602;58.934;11.166;2022-11-15T13:02:48;7.30;99.90
13072;DHT22;6602;58.934;11.166;2022-11-15T13:08:43;7.10;99.90
13072;DHT22;6602;58.934;11.166;2022-11-15T13:31:25;6.90;99.90
13072;DHT22;6602;58.934;11.166;2022-11-15T13:36:46;7.00;99.90
13072;DHT22;6602;58.934;11.166;2022-11-15T13:42:15;7.00;99.90
13072;DHT22;6602;58.934;11.166;2022-11-15T13:47:36;7.10;99.90
13072;DHT22;6602;58.934;11.166;2022-11-15T13:52:59;7.10;99.90
13072;DHT22;6602;58.934;11.166;2022-11-15T13:58:23;7.20;99.90
13072;DHT22;6602;58.934;11.166;2022-11-15T14:03:55;7.20;99.90
13072;DHT22;6602;58.934;11.166;2022-11-15T14:14:54;7.10;99.90
13072;DHT22;6602;58.934;11.166;2022-11-15T14:20:27;7.10;99.90
13072;DHT22;6602;58.934;11.166;2022-11-15T14:25:54;7.00;99.90
13072;DHT22;6602;58.934;11.166;2022-11-15T14:31:17;7.00;99.90
13072;DHT22;6602;58.934;11.166;2022-11-15T14:36:38;7.00;99.90
13072;DHT22;6602;58.934;11.166;2022-11-15T14:42:01;7.00;99.90
13072;DHT22;6602;58.934;11.166;2022-11-15T14:47:22;6.90;99.90
13072;DHT22;6602;58.934;11.166;2022-11-15T14:52:50;6.90;99.90
13072;DHT22;6602;58.934;11.166;2022-11-15T14:58:12;6.90;99.90
13072;DHT22;6602;58.934;11.166;2022-11-15T15:03:35;6.80;99.90
13072;DHT22;6602;58.934;11.166;2022-11-15T15:08:56;6.80;99.90
13072;DHT22;6602;58.934;11.166;2022-11-15T15:14:20;6.80;99.90
13072;DHT22;6602;58.934;11.166;2022-11-15T15:19:42;6.70;99.90
13072;DHT22;6602;58.934;11.166;2022-11-15T15:25:20;6.70;99.90
13072;DHT22;6602;58.934;11.166;2022-11-15T15:30:43;6.70;99.90
13072;DHT22;6602;58.934;11.166;2022-11-15T15:36:04;6.70;99.90
13072;DHT22;6602;58.934;11.166;2022-11-15T15:41:28;6.70;99.90
13072;DHT22;6602;58.934;11.166;2022-11-15T15:46:49;6.70;99.90
13072;DHT22;6602;58.934;11.166;2022-11-15T15:52:10;6.70;99.90
13072;DHT22;6602;58.934;11.166;2022-11-15T15:57:32;6.70;99.90
13072;DHT22;6602;58.934;11.166;2022-11-15T16:02:54;6.70;99.90
13072;DHT22;6602;58.934;11.166;2022-11-15T16:08:20;6.60;99.90
13072;DHT22;6602;58.934;11.166;2022-11-15T16:13:41;6.60;99.90
13072;DHT22;6602;58.934;11.166;2022-11-15T16:19:04;6.60;99.90
13072;DHT22;6602;58.934;11.166;2022-11-15T16:24:25;6.50;99.90
13072;DHT22;6602;58.934;11.166;2022-11-15T16:29:46;6.60;99.90
13072;DHT22;6602;58.934;11.166;2022-11-15T16:35:11;6.50;99.90
13072;DHT22;6602;58.934;11.166;2022-11-15T16:40:34;6.50;99.90
13072;DHT22;6602;58.934;11.166;2022-11-15T16:45:55;6.50;99.90
13072;DHT22;6602;58.934;11.166;2022-11-15T16:51:17;6.50;99.90
13072;DHT22;6602;58.934;11.166;2022-11-15T16:56:38;6.50;99.90
13072;DHT22;6602;58.934;11.166;2022-11-15T17:02:02;6.60;99.90
13072;DHT22;6602;58.934;11.166;2022-11-15T17:07:23;6.50;99.90
13072;DHT22;6602;58.934;11.166;2022-11-15T17:12:45;6.50;99.90
13072;DHT22;6602;58.934;11.166;2022-11-15T17:18:16;6.50;99.90
13072;DHT22;6602;58.934;11.166;2022-11-15T17:23:41;6.50;99.90
13072;DHT22;6602;58.934;11.166;2022-11-15T17:29:03;6.50;99.90
13072;DHT22;6602;58.934;11.166;2022-11-15T17:34:28;6.40;99.90
13072;DHT22;6602;58.934;11.166;2022-11-15T17:39:49;6.50;99.90
13072;DHT22;6602;58.934;11.166;2022-11-15T17:45:11;6.50;99.90
13072;DHT22;6602;58.934;11.166;2022-11-15T17:50:35;6.50;99.90
13072;DHT22;6602;58.934;11.166;2022-11-15T17:56:01;6.50;99.90
13072;DHT22;6602;58.934;11.166;2022-11-15T18:01:26;6.50;99.90
13072;DHT22;6602;58.934;11.166;2022-11-15T18:06:48;6.40;99.90
13072;DHT22;6602;58.934;11.166;2022-11-15T18:12:10;6.40;99.90
13072;DHT22;6602;58.934;11.166;2022-11-15T18:17:31;6.40;99.90
13072;DHT22;6602;58.934;11.166;2022-11-15T18:22:53;6.50;99.90
13072;DHT22;6602;58.934;11.166;2022-11-15T18:28:14;6.40;99.90
13072;DHT22;6602;58.934;11.166;2022-11-15T18:33:43;6.40;99.90
13072;DHT22;6602;58.934;11.166;2022-11-15T18:39:06;6.40;99.90
13072;DHT22;6602;58.934;11.166;2022-11-15T18:44:28;6.40;99.90
13072;DHT22;6602;58.934;11.166;2022-11-15T18:49:51;6.40;99.90
13072;DHT22;6602;58.934;11.166;2022-11-15T18:55:13;6.50;99.90
13072;DHT22;6602;58.934;11.166;2022-11-15T19:00:35;6.50;99.90
13072;DHT22;6602;58.934;11.166;2022-11-15T19:11:32;6.50;99.90
13072;DHT22;6602;58.934;11.166;2022-11-15T19:16:55;6.50;99.90
13072;DHT22;6602;58.934;11.166;2022-11-15T19:22:17;6.60;99.90
13072;DHT22;6602;58.934;11.166;2022-11-15T19:27:38;6.60;99.90
13072;DHT22;6602;58.934;11.166;2022-11-15T19:33:00;6.80;99.90
13072;DHT22;6602;58.934;11.166;2022-11-15T19:38:21;6.80;99.90
13072;DHT22;6602;58.934;11.166;2022-11-15T19:43:42;6.80;99.90
13072;DHT22;6602;58.934;11.166;2022-11-15T19:49:04;6.80;99.90
13072;DHT22;6602;58.934;11.166;2022-11-15T19:54:26;6.80;99.90
13072;DHT22;6602;58.934;11.166;2022-11-15T19:59:47;6.70;99.90
13072;DHT22;6602;58.934;11.166;2022-11-15T20:05:08;6.70;99.90
13072;DHT22;6602;58.934;11.166;2022-11-15T20:10:29;6.80;99.90
13072;DHT22;6602;58.934;11.166;2022-11-15T20:15:53;6.90;99.90
13072;DHT22;6602;58.934;11.166;2022-11-15T20:21:15;6.80;99.90
13072;DHT22;6602;58.934;11.166;2022-11-15T20:26:36;6.90;99.90
13072;DHT22;6602;58.934;11.166;2022-11-15T20:31:58;6.90;99.90
13072;DHT22;6602;58.934;11.166;2022-11-15T20:37:19;6.90;99.90
13072;DHT22;6602;58.934;11.166;2022-11-15T20:42:41;6.90;99.90
13072;DHT22;6602;58.934;11.166;2022-11-15T20:48:03;6.90;99.90
13072;DHT22;6602;58.934;11.166;2022-11-15T20:53:24;6.90;99.90
13072;DHT22;6602;58.934;11.166;2022-11-15T20:58:47;6.90;99.90
13072;DHT22;6602;58.934;11.166;2022-11-15T21:04:10;6.90;99.90
13072;DHT22;6602;58.934;11.166;2022-11-15T21:09:31;6.80;99.90
13072;DHT22;6602;58.934;11.166;2022-11-15T21:15:12;6.80;99.90
13072;DHT22;6602;58.934;11.166;2022-11-15T21:20:34;6.80;99.90
13072;DHT22;6602;58.934;11.166;2022-11-15T21:25:58;6.80;99.90
13072;DHT22;6602;58.934;11.166;2022-11-15T21:31:19;6.80;99.90
13072;DHT22;6602;58.934;11.166;2022-11-15T21:36:40;6.90;99.90
13072;DHT22;6602;58.934;11.166;2022-11-15T21:42:01;6.80;99.90
13072;DHT22;6602;58.934;11.166;2022-11-15T21:47:22;6.80;99.90
13072;DHT22;6602;58.934;11.166;2022-11-15T21:52:43;6.80;99.90
13072;DHT22;6602;58.934;11.166;2022-11-15T21:58:06;6.80;99.90
13072;DHT22;6602;58.934;11.166;2022-11-15T22:03:27;6.80;99.90
13072;DHT22;6602;58.934;11.166;2022-11-15T22:08:49;6.80;99.90
13072;DHT22;6602;58.934;11.166;2022-11-15T22:14:10;6.70;99.90
13072;DHT22;6602;58.934;11.166;2022-11-15T22:19:35;6.70;99.90
13072;DHT22;6602;58.934;11.166;2022-11-15T22:24:56;6.70;99.90
13072;DHT22;6602;58.934;11.166;2022-11-15T22:30:17;6.80;99.90
13072;DHT22;6602;58.934;11.166;2022-11-15T22:35:39;6.70;99.90
13072;DHT22;6602;58.934;11.166;2022-11-15T22:41:01;6.70;99.90
13072;DHT22;6602;58.934;11.166;2022-11-15T22:46:22;6.70;99.90
13072;DHT22;6602;58.934;11.166;2022-11-15T22:51:44;6.70;99.90
13072;DHT22;6602;58.934;11.166;2022-11-15T22:57:06;6.70;99.90
13072;DHT22;6602;58.934;11.166;2022-11-15T23:02:35;6.70;99.90
13072;DHT22;6602;58.934;11.166;2022-11-15T23:07:56;6.60;99.90
13072;DHT22;6602;58.934;11.166;2022-11-15T23:13:17;6.60;99.90
13072;DHT22;6602;58.934;11.166;2022-11-15T23:18:39;6.60;99.90
13072;DHT22;6602;58.934;11.166;2022-11-15T23:24:04;6.60;99.90
13072;DHT22;6602;58.934;11.166;2022-11-15T23:29:27;6.60;99.90
13072;DHT22;6602;58.934;11.166;2022-11-15T23:34:48;6.60;99.90
13072;DHT22;6602;58.934;11.166;2022-11-15T23:40:10;6.50;99.90
13072;DHT22;6602;58.934;11.166;2022-11-15T23:45:31;6.50;99.90
13072;DHT22;6602;58.934;11.166;2022-11-15T23:50:53;6.40;99.90
13072;DHT22;6602;58.934;11.166;2022-11-15T23:56:17;6.40;99.90
